createdAt,value
2024-04-11T00:00:20.494Z,1014.732
2024-04-11T00:01:19.563Z,1014.722
2024-04-11T00:02:20.679Z,1014.731
2024-04-11T00:03:19.638Z,1014.768
2024-04-11T00:04:19.572Z,1014.772
2024-04-11T00:05:20.581Z,1014.825
2024-04-11T00:06:19.541Z,1014.835
2024-04-11T00:07:20.540Z,1014.815
2024-04-11T00:08:19.638Z,1014.862
2024-04-11T00:09:20.517Z,1014.874
2024-04-11T00:10:20.527Z,1014.869
2024-04-11T00:11:19.681Z,1014.83
2024-04-11T00:12:20.747Z,1014.814
2024-04-11T00:13:19.553Z,1014.785
2024-04-11T00:14:20.591Z,1014.802
2024-04-11T00:15:20.549Z,1014.75
2024-04-11T00:16:19.624Z,1014.765
2024-04-11T00:17:20.578Z,1014.77
2024-04-11T00:18:19.706Z,1014.833
2024-04-11T00:19:20.556Z,1014.809
2024-04-11T00:20:20.662Z,1014.83
2024-04-11T00:21:24.302Z,1014.826
2024-04-11T00:22:19.606Z,1014.816
2024-04-11T00:23:19.641Z,1014.851
2024-04-11T00:24:20.596Z,1014.836
2024-04-11T00:25:20.570Z,1014.841
2024-04-11T00:26:20.582Z,1014.827
2024-04-11T00:27:19.596Z,1014.828
2024-04-11T00:28:19.580Z,1014.832
2024-04-11T00:29:20.633Z,1014.805
2024-04-11T00:30:20.604Z,1014.827
2024-04-11T00:31:20.578Z,1014.812
2024-04-11T00:32:19.848Z,1014.837
2024-04-11T00:33:19.665Z,1014.823
2024-04-11T00:34:20.695Z,1014.819
2024-04-11T00:35:20.627Z,1014.822
2024-04-11T00:36:20.587Z,1014.821
2024-04-11T00:37:19.633Z,1014.81
2024-04-11T00:38:20.610Z,1014.804
2024-04-11T00:39:19.927Z,1014.814
2024-04-11T00:40:20.589Z,1014.774
2024-04-11T00:41:20.678Z,1014.822
2024-04-11T00:42:19.611Z,1014.81
2024-04-11T00:43:20.608Z,1014.851
2024-04-11T00:44:19.637Z,1014.815
2024-04-11T00:45:20.604Z,1014.87
2024-04-11T00:46:20.611Z,1014.855
2024-04-11T00:47:19.755Z,1014.859
2024-04-11T00:48:20.761Z,1014.875
2024-04-11T00:49:19.694Z,1014.843
2024-04-11T00:50:24.474Z,1014.842
2024-04-11T00:51:19.625Z,1014.851
2024-04-11T00:52:19.667Z,1014.818
2024-04-11T00:53:20.699Z,1014.799
2024-04-11T00:54:19.648Z,1014.84
2024-04-11T00:55:20.618Z,1014.847
2024-04-11T00:56:19.639Z,1014.888
2024-04-11T00:57:19.639Z,1014.867
2024-04-11T00:58:20.660Z,1014.863
2024-04-11T00:59:19.749Z,1014.852
2024-04-11T01:00:20.633Z,1014.866
2024-04-11T01:01:19.688Z,1014.851
2024-04-11T01:02:19.760Z,1014.834
2024-04-11T01:03:20.860Z,1014.862
2024-04-11T01:04:19.755Z,1014.863
2024-04-11T01:05:20.701Z,1014.834
2024-04-11T01:06:19.659Z,1014.834
2024-04-11T01:07:20.660Z,1014.813
2024-04-11T01:08:19.723Z,1014.856
2024-04-11T01:09:19.672Z,1014.894
2024-04-11T01:10:20.669Z,1014.876
2024-04-11T01:11:19.717Z,1014.875
2024-04-11T01:12:20.705Z,1014.857
2024-04-11T01:13:19.678Z,1014.84
2024-04-11T01:14:19.758Z,1014.851
2024-04-11T01:15:20.676Z,1014.857
2024-04-11T01:16:19.692Z,1014.87
2024-04-11T01:17:20.940Z,1014.865
2024-04-11T01:18:19.778Z,1014.841
2024-04-11T01:19:24.480Z,1014.86
2024-04-11T01:20:20.699Z,1014.841
2024-04-11T01:21:19.737Z,1014.813
2024-04-11T01:22:21.262Z,1014.769
2024-04-11T01:23:19.727Z,1014.742
2024-04-11T01:24:20.690Z,1014.713
2024-04-11T01:25:20.687Z,1014.691
2024-04-11T01:26:19.798Z,1014.696
2024-04-11T01:27:20.740Z,1014.693
2024-04-11T01:28:19.757Z,1014.724
2024-04-11T01:29:20.813Z,1014.747
2024-04-11T01:30:20.716Z,1014.77
2024-04-11T01:31:19.763Z,1014.789
2024-04-11T01:32:20.768Z,1014.787
2024-04-11T01:33:19.841Z,1014.792
2024-04-11T01:34:20.874Z,1014.742
2024-04-11T01:35:20.760Z,1014.762
2024-04-11T01:36:20.721Z,1014.775
2024-04-11T01:37:19.772Z,1014.794
2024-04-11T01:38:19.740Z,1014.793
2024-04-11T01:39:20.744Z,1014.802
2024-04-11T01:40:20.822Z,1014.831
2024-04-11T01:41:20.806Z,1014.867
2024-04-11T01:42:19.739Z,1014.867
2024-04-11T01:43:19.789Z,1014.814
2024-04-11T01:44:20.795Z,1014.847
2024-04-11T01:45:20.736Z,1014.864
2024-04-11T01:46:20.807Z,1014.872
2024-04-11T01:47:19.780Z,1014.893
2024-04-11T01:48:24.632Z,1014.856
2024-04-11T01:49:19.752Z,1014.849
2024-04-11T01:50:20.768Z,1014.847
2024-04-11T01:51:20.790Z,1014.824
2024-04-11T01:52:19.762Z,1014.832
2024-04-11T01:53:20.771Z,1014.845
2024-04-11T01:54:19.819Z,1014.822
2024-04-11T01:55:20.803Z,1014.833
2024-04-11T01:56:20.797Z,1014.825
2024-04-11T01:57:19.776Z,1014.867
2024-04-11T01:58:20.801Z,1014.859
2024-04-11T01:59:19.821Z,1014.948
2024-04-11T02:00:20.770Z,1014.968
2024-04-11T02:01:20.874Z,1014.927
2024-04-11T02:02:19.905Z,1014.929
2024-04-11T02:03:21.008Z,1014.949
2024-04-11T02:04:19.816Z,1014.956
2024-04-11T02:05:20.809Z,1014.955
2024-04-11T02:06:19.792Z,1014.967
2024-04-11T02:07:19.849Z,1014.978
2024-04-11T02:08:20.901Z,1014.975
2024-04-11T02:09:19.791Z,1014.998
2024-04-11T02:10:20.783Z,1014.977
2024-04-11T02:11:19.976Z,1014.975
2024-04-11T02:12:19.946Z,1015.001
2024-04-11T02:13:20.836Z,1015.024
2024-04-11T02:14:19.867Z,1014.997
2024-04-11T02:15:20.817Z,1014.992
2024-04-11T02:16:19.875Z,1015.026
2024-04-11T02:17:24.636Z,1015.046
2024-04-11T02:18:19.930Z,1015.047
2024-04-11T02:19:19.829Z,1015.025
2024-04-11T02:20:20.872Z,1015.015
2024-04-11T02:21:19.817Z,1014.98
2024-04-11T02:22:20.826Z,1014.939
2024-04-11T02:23:19.977Z,1014.954
2024-04-11T02:24:19.825Z,1014.993
2024-04-11T02:25:20.828Z,1014.944
2024-04-11T02:26:19.934Z,1014.962
2024-04-11T02:27:20.833Z,1014.96
2024-04-11T02:28:19.843Z,1014.958
2024-04-11T02:29:19.962Z,1014.923
2024-04-11T02:30:20.831Z,1014.904
2024-04-11T02:31:19.915Z,1014.907
2024-04-11T02:32:20.963Z,1014.877
2024-04-11T02:33:19.909Z,1014.87
2024-04-11T02:34:21.217Z,1014.828
2024-04-11T02:35:20.889Z,1014.824
2024-04-11T02:36:19.998Z,1014.869
2024-04-11T02:37:20.875Z,1014.796
2024-04-11T02:38:19.951Z,1014.843
2024-04-11T02:39:20.875Z,1014.865
2024-04-11T02:40:20.875Z,1014.832
2024-04-11T02:41:19.914Z,1014.816
2024-04-11T02:42:20.873Z,1014.831
2024-04-11T02:43:19.922Z,1014.801
2024-04-11T02:44:20.962Z,1014.801
2024-04-11T02:45:20.882Z,1014.82
2024-04-11T02:46:28.840Z,1014.856
2024-04-11T02:47:20.142Z,1014.847
2024-04-11T02:48:20.057Z,1014.873
2024-04-11T02:49:21.017Z,1014.875
2024-04-11T02:50:20.908Z,1014.852
2024-04-11T02:51:20.888Z,1014.883
2024-04-11T02:52:19.929Z,1014.863
2024-04-11T02:53:20.018Z,1014.843
2024-04-11T02:54:20.927Z,1014.831
2024-04-11T02:55:20.881Z,1014.812
2024-04-11T02:56:20.914Z,1014.807
2024-04-11T02:57:19.906Z,1014.786
2024-04-11T02:58:19.957Z,1014.816
2024-04-11T02:59:20.953Z,1014.779
2024-04-11T03:00:20.913Z,1014.816
2024-04-11T03:01:20.954Z,1014.842
2024-04-11T03:02:20.005Z,1014.857
2024-04-11T03:03:23.798Z,1014.846
2024-04-11T03:04:20.019Z,1014.826
2024-04-11T03:05:20.983Z,1014.859
2024-04-11T03:06:20.927Z,1014.876
2024-04-11T03:07:19.980Z,1014.819
2024-04-11T03:08:20.949Z,1014.846
2024-04-11T03:09:20.185Z,1014.815
2024-04-11T03:10:20.935Z,1014.848
2024-04-11T03:11:21.047Z,1014.817
2024-04-11T03:12:20.062Z,1014.812
2024-04-11T03:13:21.010Z,1014.828
2024-04-11T03:14:20.015Z,1014.83
2024-04-11T03:15:24.692Z,1014.844
2024-04-11T03:16:20.169Z,1014.837
2024-04-11T03:17:19.973Z,1014.85
2024-04-11T03:18:21.019Z,1014.85
2024-04-11T03:19:19.945Z,1014.852
2024-04-11T03:20:21.014Z,1014.772
2024-04-11T03:21:19.960Z,1014.823
2024-04-11T03:22:19.992Z,1014.77
2024-04-11T03:23:21.008Z,1014.805
2024-04-11T03:24:19.957Z,1014.839
2024-04-11T03:25:21.003Z,1014.86
2024-04-11T03:26:20.052Z,1014.86
2024-04-11T03:27:19.970Z,1014.865
2024-04-11T03:28:20.964Z,1014.826
2024-04-11T03:29:20.065Z,1014.852
2024-04-11T03:30:20.970Z,1014.863
2024-04-11T03:31:20.382Z,1014.816
2024-04-11T03:32:21.109Z,1014.821
2024-04-11T03:33:20.236Z,1014.79
2024-04-11T03:34:20.039Z,1014.813
2024-04-11T03:35:21.048Z,1014.815
2024-04-11T03:36:19.987Z,1014.813
2024-04-11T03:37:20.971Z,1014.801
2024-04-11T03:38:20.097Z,1014.823
2024-04-11T03:39:19.993Z,1014.824
2024-04-11T03:40:21.020Z,1014.834
2024-04-11T03:41:20.114Z,1014.858
2024-04-11T03:42:21.035Z,1014.858
2024-04-11T03:43:20.042Z,1014.857
2024-04-11T03:44:24.745Z,1014.81
2024-04-11T03:45:20.996Z,1014.778
2024-04-11T03:46:20.429Z,1014.799
2024-04-11T03:47:21.070Z,1014.773
2024-04-11T03:48:20.151Z,1014.74
2024-04-11T03:49:20.997Z,1014.686
2024-04-11T03:50:21.029Z,1014.679
2024-04-11T03:51:20.026Z,1014.64
2024-04-11T03:52:21.018Z,1014.655
2024-04-11T03:53:20.059Z,1014.63
2024-04-11T03:54:21.014Z,1014.619
2024-04-11T03:55:21.020Z,1014.621
2024-04-11T03:56:20.344Z,1014.594
2024-04-11T03:57:21.041Z,1014.588
2024-04-11T03:58:20.081Z,1014.51
2024-04-11T03:59:21.091Z,1014.553
2024-04-11T04:00:21.034Z,1014.595
2024-04-11T04:01:21.056Z,1014.613
2024-04-11T04:02:20.172Z,1014.623
2024-04-11T04:03:20.101Z,1014.65
2024-04-11T04:04:21.291Z,1014.574
2024-04-11T04:05:21.061Z,1014.566
2024-04-11T04:06:21.077Z,1014.567
2024-04-11T04:07:20.088Z,1014.597
2024-04-11T04:08:20.220Z,1014.536
2024-04-11T04:09:21.075Z,1014.49
2024-04-11T04:10:21.055Z,1014.524
2024-04-11T04:11:21.196Z,1014.535
2024-04-11T04:12:20.173Z,1014.52
2024-04-11T04:13:24.811Z,1014.556
2024-04-11T04:14:20.184Z,1014.526
2024-04-11T04:15:21.084Z,1014.488
2024-04-11T04:16:21.114Z,1014.502
2024-04-11T04:17:20.087Z,1014.457
2024-04-11T04:18:21.257Z,1014.455
2024-04-11T04:19:20.078Z,1014.436
2024-04-11T04:20:21.154Z,1014.503
2024-04-11T04:21:21.129Z,1014.454
2024-04-11T04:22:20.082Z,1014.463
2024-04-11T04:23:21.137Z,1014.44
2024-04-11T04:24:20.092Z,1014.484
2024-04-11T04:25:21.083Z,1014.487
2024-04-11T04:26:21.166Z,1014.477
2024-04-11T04:27:20.097Z,1014.478
2024-04-11T04:28:21.131Z,1014.496
2024-04-11T04:29:20.286Z,1014.422
2024-04-11T04:30:21.109Z,1014.384
2024-04-11T04:31:20.147Z,1014.44
2024-04-11T04:32:20.331Z,1014.433
2024-04-11T04:33:21.269Z,1014.468
2024-04-11T04:34:20.431Z,1014.422
2024-04-11T04:35:21.172Z,1014.404
2024-04-11T04:36:20.147Z,1014.473
2024-04-11T04:37:20.126Z,1014.419
2024-04-11T04:38:21.174Z,1014.395
2024-04-11T04:39:20.283Z,1014.455
2024-04-11T04:40:21.129Z,1014.418
2024-04-11T04:41:20.330Z,1014.454
2024-04-11T04:42:24.842Z,1014.43
2024-04-11T04:43:20.170Z,1014.396
2024-04-11T04:44:20.209Z,1014.478
2024-04-11T04:45:21.143Z,1014.432
2024-04-11T04:46:20.196Z,1014.437
2024-04-11T04:47:21.279Z,1014.34
2024-04-11T04:48:20.244Z,1014.383
2024-04-11T04:49:20.251Z,1014.387
2024-04-11T04:50:21.168Z,1014.33
2024-04-11T04:51:20.181Z,1014.315
2024-04-11T04:52:21.142Z,1014.304
2024-04-11T04:53:20.249Z,1014.241
2024-04-11T04:54:20.191Z,1014.262
2024-04-11T04:55:21.142Z,1014.34
2024-04-11T04:56:20.199Z,1014.343
2024-04-11T04:57:21.161Z,1014.31
2024-04-11T04:58:20.203Z,1014.342
2024-04-11T04:59:23.913Z,1014.346
2024-04-11T05:00:21.176Z,1014.313
2024-04-11T05:01:20.165Z,1014.321
2024-04-11T05:02:21.237Z,1014.29
2024-04-11T05:03:20.382Z,1014.266
2024-04-11T05:04:21.309Z,1014.311
2024-04-11T05:05:21.199Z,1014.296
2024-04-11T05:06:20.181Z,1014.38
2024-04-11T05:07:21.239Z,1014.36
2024-04-11T05:08:20.191Z,1014.4
2024-04-11T05:09:21.179Z,1014.406
2024-04-11T05:10:21.186Z,1014.424
2024-04-11T05:11:24.989Z,1014.405
2024-04-11T05:12:20.252Z,1014.401
2024-04-11T05:13:20.207Z,1014.403
2024-04-11T05:14:21.219Z,1014.413
2024-04-11T05:15:21.181Z,1014.417
2024-04-11T05:16:21.762Z,1014.45
2024-04-11T05:17:20.217Z,1014.459
2024-04-11T05:18:20.405Z,1014.467
2024-04-11T05:19:21.240Z,1014.457
2024-04-11T05:20:23.657Z,1014.472
2024-04-11T05:21:21.298Z,1014.461
2024-04-11T05:22:20.212Z,1014.435
2024-04-11T05:23:20.397Z,1014.494
2024-04-11T05:24:21.348Z,1014.478
2024-04-11T05:25:21.218Z,1014.438
2024-04-11T05:26:21.272Z,1014.429
2024-04-11T05:27:20.270Z,1014.463
2024-04-11T05:28:23.929Z,1014.516
2024-04-11T05:29:20.306Z,1014.488
2024-04-11T05:30:21.281Z,1014.467
2024-04-11T05:31:21.230Z,1014.474
2024-04-11T05:32:20.362Z,1014.479
2024-04-11T05:33:21.363Z,1014.494
2024-04-11T05:34:20.329Z,1014.458
2024-04-11T05:35:21.263Z,1014.478
2024-04-11T05:36:21.286Z,1014.485
2024-04-11T05:37:20.248Z,1014.471
2024-04-11T05:38:21.283Z,1014.509
2024-04-11T05:39:20.256Z,1014.467
2024-04-11T05:40:25.075Z,1014.469
2024-04-11T05:41:20.294Z,1014.441
2024-04-11T05:42:20.351Z,1014.435
2024-04-11T05:43:29.015Z,1014.425
2024-04-11T05:44:21.427Z,1014.392
2024-04-11T05:45:21.263Z,1014.406
2024-04-11T05:46:20.275Z,1014.395
2024-04-11T05:47:20.423Z,1014.388
2024-04-11T05:48:21.406Z,1014.4
2024-04-11T05:49:20.438Z,1014.413
2024-04-11T05:50:21.325Z,1014.431
2024-04-11T05:51:20.331Z,1014.422
2024-04-11T05:52:20.287Z,1014.442
2024-04-11T05:53:21.333Z,1014.445
2024-04-11T05:54:21.633Z,1014.501
2024-04-11T05:55:21.320Z,1014.498
2024-04-11T05:56:20.337Z,1014.491
2024-04-11T05:57:21.304Z,1014.51
2024-04-11T05:58:20.335Z,1014.472
2024-04-11T05:59:20.340Z,1014.533
2024-04-11T06:00:21.327Z,1014.54
2024-04-11T06:01:20.407Z,1014.581
2024-04-11T06:02:21.412Z,1014.559
2024-04-11T06:03:20.416Z,1014.577
2024-04-11T06:04:20.341Z,1014.574
2024-04-11T06:05:21.311Z,1014.589
2024-04-11T06:06:20.309Z,1014.625
2024-04-11T06:07:21.339Z,1014.608
2024-04-11T06:08:20.324Z,1014.665
2024-04-11T06:09:36.891Z,1014.686
2024-04-11T06:10:21.309Z,1014.695
2024-04-11T06:11:20.368Z,1014.703
2024-04-11T06:12:21.549Z,1014.724
2024-04-11T06:13:20.367Z,1014.726
2024-04-11T06:14:21.462Z,1014.745
2024-04-11T06:15:21.348Z,1014.731
2024-04-11T06:16:20.352Z,1014.739
2024-04-11T06:17:21.421Z,1014.761
2024-04-11T06:18:20.431Z,1014.826
2024-04-11T06:19:21.312Z,1014.835
2024-04-11T06:20:21.415Z,1014.826
2024-04-11T06:21:20.834Z,1014.824
2024-04-11T06:22:21.350Z,1014.882
2024-04-11T06:23:20.392Z,1014.78
2024-04-11T06:24:21.475Z,1014.831
2024-04-11T06:25:21.516Z,1014.839
2024-04-11T06:26:21.421Z,1014.852
2024-04-11T06:27:20.402Z,1014.865
2024-04-11T06:28:20.358Z,1014.923
2024-04-11T06:29:21.478Z,1014.902
2024-04-11T06:30:21.390Z,1014.935
2024-04-11T06:31:21.352Z,1014.919
2024-04-11T06:32:20.425Z,1014.969
2024-04-11T06:33:20.724Z,1014.921
2024-04-11T06:34:21.701Z,1014.959
2024-04-11T06:35:21.462Z,1014.955
2024-04-11T06:36:21.362Z,1014.99
2024-04-11T06:37:20.424Z,1015.019
2024-04-11T06:38:25.167Z,1015.003
2024-04-11T06:39:20.521Z,1015.061
2024-04-11T06:40:21.410Z,1015.042
2024-04-11T06:41:21.514Z,1015.043
2024-04-11T06:42:20.402Z,1015.072
2024-04-11T06:43:21.397Z,1015.1
2024-04-11T06:44:20.445Z,1015.126
2024-04-11T06:45:23.286Z,1015.084
2024-04-11T06:46:21.418Z,1015.136
2024-04-11T06:47:27.923Z,1015.149
2024-04-11T06:48:21.639Z,1015.146
2024-04-11T06:49:20.493Z,1015.168
2024-04-11T06:50:21.524Z,1015.131
2024-04-11T06:51:21.453Z,1015.145
2024-04-11T06:52:20.428Z,1015.064
2024-04-11T06:53:21.452Z,1015.113
2024-04-11T06:54:20.414Z,1015.158
2024-04-11T06:55:21.456Z,1015.171
2024-04-11T06:56:20.487Z,1015.22
2024-04-11T06:57:20.485Z,1015.199
2024-04-11T06:58:21.440Z,1015.173
2024-04-11T06:59:20.474Z,1015.198
2024-04-11T07:00:21.486Z,1015.23
2024-04-11T07:02:21.547Z,1015.193
2024-04-11T07:03:21.585Z,1015.204
2024-04-11T07:04:20.444Z,1015.196
2024-04-11T07:05:21.508Z,1015.197
2024-04-11T07:06:20.466Z,1015.229
2024-04-11T07:07:25.273Z,1015.235
2024-04-11T07:08:20.510Z,1015.267
2024-04-11T07:09:20.452Z,1015.314
2024-04-11T07:10:21.491Z,1015.374
2024-04-11T07:11:21.057Z,1015.389
2024-04-11T07:12:21.466Z,1015.367
2024-04-11T07:13:20.493Z,1015.411
2024-04-11T07:14:20.509Z,1015.399
2024-04-11T07:15:21.466Z,1015.379
2024-04-11T07:16:20.518Z,1015.395
2024-04-11T07:17:21.521Z,1015.403
2024-04-11T07:18:20.518Z,1015.423
2024-04-11T07:19:20.473Z,1015.392
2024-04-11T07:20:21.506Z,1015.43
2024-04-11T07:21:20.495Z,1015.426
2024-04-11T07:22:21.474Z,1015.393
2024-04-11T07:23:20.524Z,1015.44
2024-04-11T07:24:21.505Z,1015.431
2024-04-11T07:25:21.470Z,1015.472
2024-04-11T07:26:20.482Z,1015.431
2024-04-11T07:27:21.475Z,1015.421
2024-04-11T07:28:20.536Z,1015.4
2024-04-11T07:29:21.556Z,1015.439
2024-04-11T07:30:21.491Z,1015.448
2024-04-11T07:31:20.505Z,1015.453
2024-04-11T07:32:21.535Z,1015.461
2024-04-11T07:33:20.690Z,1015.451
2024-04-11T07:34:21.498Z,1015.474
2024-04-11T07:35:21.540Z,1015.439
2024-04-11T07:36:25.353Z,1015.486
2024-04-11T07:37:20.551Z,1015.474
2024-04-11T07:38:20.555Z,1015.531
2024-04-11T07:39:21.617Z,1015.483
2024-04-11T07:40:21.514Z,1015.499
2024-04-11T07:41:21.691Z,1015.484
2024-04-11T07:42:20.633Z,1015.442
2024-04-11T07:43:20.522Z,1015.477
2024-04-11T07:44:21.722Z,1015.502
2024-04-11T07:45:21.525Z,1015.456
2024-04-11T07:46:21.526Z,1015.435
2024-04-11T07:47:24.119Z,1015.473
2024-04-11T07:48:21.612Z,1015.472
2024-04-11T07:49:21.624Z,1015.497
2024-04-11T07:50:21.590Z,1015.535
2024-04-11T07:51:21.550Z,1015.514
2024-04-11T07:52:20.553Z,1015.539
2024-04-11T07:53:24.359Z,1015.535
2024-04-11T07:54:26.639Z,1015.581
2024-04-11T07:55:21.550Z,1015.549
2024-04-11T07:56:21.605Z,1015.537
2024-04-11T07:57:20.553Z,1015.57
2024-04-11T07:58:21.543Z,1015.58
2024-04-11T07:59:20.561Z,1015.584
2024-04-11T08:00:24.333Z,1015.58
2024-04-11T08:01:21.641Z,1015.59
2024-04-11T08:02:20.961Z,1015.586
2024-04-11T08:03:21.559Z,1015.566
2024-04-11T08:04:20.626Z,1015.554
2024-04-11T08:05:25.449Z,1015.521
2024-04-11T08:06:24.799Z,1015.523
2024-04-11T08:07:20.663Z,1015.58
2024-04-11T08:08:21.915Z,1015.533
2024-04-11T08:09:20.581Z,1015.649
2024-04-11T08:10:21.587Z,1015.638
2024-04-11T08:11:20.626Z,1015.65
2024-04-11T08:12:20.606Z,1015.675
2024-04-11T08:13:21.581Z,1015.652
2024-04-11T08:14:20.650Z,1015.672
2024-04-11T08:15:21.622Z,1015.689
2024-04-11T08:16:20.600Z,1015.658
2024-04-11T08:17:20.601Z,1015.658
2024-04-11T08:18:21.696Z,1015.674
2024-04-11T08:19:20.598Z,1015.705
2024-04-11T08:20:21.760Z,1015.718
2024-04-11T08:21:20.607Z,1015.733
2024-04-11T08:22:24.367Z,1015.722
2024-04-11T08:23:21.974Z,1015.782
2024-04-11T08:24:20.610Z,1015.805
2024-04-11T08:25:21.609Z,1015.761
2024-04-11T08:26:20.659Z,1015.757
2024-04-11T08:27:21.979Z,1015.744
2024-04-11T08:28:20.630Z,1015.77
2024-04-11T08:29:20.670Z,1015.758
2024-04-11T08:30:21.628Z,1015.775
2024-04-11T08:31:20.671Z,1015.773
2024-04-11T08:32:21.717Z,1015.796
2024-04-11T08:33:20.735Z,1015.779
2024-04-11T08:34:26.382Z,1015.837
2024-04-11T08:35:21.627Z,1015.823
2024-04-11T08:36:20.643Z,1015.772
2024-04-11T08:37:21.654Z,1015.808
2024-04-11T08:38:20.640Z,1015.829
2024-04-11T08:39:21.653Z,1015.77
2024-04-11T08:40:21.640Z,1015.808
2024-04-11T08:41:20.699Z,1015.809
2024-04-11T08:42:21.643Z,1015.829
2024-04-11T08:43:20.651Z,1015.852
2024-04-11T08:44:21.651Z,1015.851
2024-04-11T08:45:21.655Z,1015.848
2024-04-11T08:46:20.714Z,1015.879
2024-04-11T08:47:21.953Z,1015.828
2024-04-11T08:48:20.778Z,1015.874
2024-04-11T08:49:21.720Z,1015.818
2024-04-11T08:50:24.678Z,1015.875
2024-04-11T08:51:35.226Z,1015.842
2024-04-11T08:52:20.676Z,1015.877
2024-04-11T08:53:20.725Z,1015.867
2024-04-11T08:54:21.689Z,1015.862
2024-04-11T08:55:21.666Z,1015.884
2024-04-11T08:56:21.718Z,1015.972
2024-04-11T08:57:20.698Z,1015.947
2024-04-11T08:58:20.679Z,1016.016
2024-04-11T08:59:21.688Z,1015.953
2024-04-11T09:00:21.676Z,1016.02
2024-04-11T09:01:21.755Z,1015.99
2024-04-11T09:02:20.731Z,1015.984
2024-04-11T09:03:25.644Z,1016.024
2024-04-11T09:04:20.781Z,1016.015
2024-04-11T09:05:21.721Z,1015.977
2024-04-11T09:06:21.723Z,1016.002
2024-04-11T09:07:20.751Z,1016.065
2024-04-11T09:08:21.735Z,1016.057
2024-04-11T09:09:20.752Z,1016.068
2024-04-11T09:10:21.756Z,1016.088
2024-04-11T09:11:23.170Z,1016.099
2024-04-11T09:12:20.782Z,1016.062
2024-04-11T09:13:21.712Z,1016.076
2024-04-11T09:14:20.775Z,1016.055
2024-04-11T09:15:21.753Z,1016.115
2024-04-11T09:16:21.748Z,1016.137
2024-04-11T09:17:22.480Z,1016.099
2024-04-11T09:18:21.903Z,1016.177
2024-04-11T09:19:20.743Z,1016.187
2024-04-11T09:20:26.218Z,1016.161
2024-04-11T09:21:20.795Z,1016.16
2024-04-11T09:22:20.787Z,1016.132
2024-04-11T09:23:21.746Z,1016.202
2024-04-11T09:24:20.750Z,1016.183
2024-04-11T09:25:21.745Z,1016.212
2024-04-11T09:26:20.758Z,1016.209
2024-04-11T09:27:20.802Z,1016.219
2024-04-11T09:28:21.767Z,1016.213
2024-04-11T09:29:23.249Z,1016.236
2024-04-11T09:30:21.742Z,1016.253
2024-04-11T09:31:20.820Z,1016.254
2024-04-11T09:32:25.992Z,1016.268
2024-04-11T09:33:20.856Z,1016.275
2024-04-11T09:34:20.810Z,1016.277
2024-04-11T09:35:21.814Z,1016.245
2024-04-11T09:36:20.781Z,1016.249
2024-04-11T09:37:21.770Z,1016.285
2024-04-11T09:38:20.824Z,1016.299
2024-04-11T09:39:20.833Z,1016.266
2024-04-11T09:40:21.779Z,1016.24
2024-04-11T09:41:22.849Z,1016.272
2024-04-11T09:42:22.080Z,1016.307
2024-04-11T09:43:20.812Z,1016.269
2024-04-11T09:44:20.799Z,1016.31
2024-04-11T09:45:21.804Z,1016.316
2024-04-11T09:46:20.851Z,1016.28
2024-04-11T09:47:21.850Z,1016.307
2024-04-11T09:48:20.847Z,1016.367
2024-04-11T09:49:21.795Z,1016.362
2024-04-11T09:50:21.798Z,1016.335
2024-04-11T09:51:20.859Z,1016.35
2024-04-11T09:52:21.830Z,1016.369
2024-04-11T09:53:20.848Z,1016.4
2024-04-11T09:54:21.809Z,1016.339
2024-04-11T09:55:21.819Z,1016.396
2024-04-11T09:56:20.858Z,1016.315
2024-04-11T09:57:21.885Z,1016.309
2024-04-11T09:58:20.827Z,1016.244
2024-04-11T09:59:21.829Z,1016.279
2024-04-11T10:00:21.827Z,1016.287
2024-04-11T10:01:26.541Z,1016.242
2024-04-11T10:02:20.928Z,1016.23
2024-04-11T10:03:21.108Z,1016.178
2024-04-11T10:04:21.926Z,1016.192
2024-04-11T10:05:21.832Z,1016.229
2024-04-11T10:06:21.838Z,1016.22
2024-04-11T10:07:20.880Z,1016.251
2024-04-11T10:08:21.006Z,1016.277
2024-04-11T10:09:21.834Z,1016.276
2024-04-11T10:10:21.849Z,1016.331
2024-04-11T10:11:21.920Z,1016.267
2024-04-11T10:12:21.009Z,1016.297
2024-04-11T10:13:20.866Z,1016.251
2024-04-11T10:14:21.886Z,1016.28
2024-04-11T10:15:21.869Z,1016.238
2024-04-11T10:16:21.861Z,1016.272
2024-04-11T10:17:20.964Z,1016.287
2024-04-11T10:18:22.057Z,1016.297
2024-04-11T10:19:21.206Z,1016.301
2024-04-11T10:20:21.908Z,1016.271
2024-04-11T10:21:22.310Z,1016.306
2024-04-11T10:22:20.892Z,1016.314
2024-04-11T10:23:21.892Z,1016.339
2024-04-11T10:24:20.922Z,1016.367
2024-04-11T10:25:21.878Z,1016.384
2024-04-11T10:26:21.911Z,1016.434
2024-04-11T10:27:20.888Z,1016.448
2024-04-11T10:28:21.882Z,1016.446
2024-04-11T10:29:20.956Z,1016.458
2024-04-11T10:30:30.217Z,1016.461
2024-04-11T10:31:20.910Z,1016.506
2024-04-11T10:32:20.967Z,1016.524
2024-04-11T10:33:22.030Z,1016.464
2024-04-11T10:34:21.036Z,1016.499
2024-04-11T10:35:21.907Z,1016.545
2024-04-11T10:36:20.958Z,1016.553
2024-04-11T10:37:20.952Z,1016.537
2024-04-11T10:38:21.937Z,1016.576
2024-04-11T10:39:20.967Z,1016.552
2024-04-11T10:40:21.953Z,1016.552
2024-04-11T10:41:20.916Z,1016.609
2024-04-11T10:42:20.981Z,1016.59
2024-04-11T10:43:21.957Z,1016.576
2024-04-11T10:44:20.980Z,1016.603
2024-04-11T10:45:21.955Z,1016.534
2024-04-11T10:46:20.955Z,1016.575
2024-04-11T10:47:21.920Z,1016.585
2024-04-11T10:48:21.081Z,1016.571
2024-04-11T10:49:20.934Z,1016.589
2024-04-11T10:50:21.977Z,1016.557
2024-04-11T10:51:20.941Z,1016.576
2024-04-11T10:52:21.954Z,1016.536
2024-04-11T10:53:22.220Z,1016.532
2024-04-11T10:54:20.946Z,1016.534
2024-04-11T10:55:21.981Z,1016.628
2024-04-11T10:56:20.996Z,1016.627
2024-04-11T10:57:21.978Z,1016.711
2024-04-11T10:58:21.017Z,1016.66
2024-04-11T10:59:25.790Z,1016.79
2024-04-11T11:00:21.992Z,1016.745
2024-04-11T11:01:21.033Z,1016.804
2024-04-11T11:02:21.984Z,1016.799
2024-04-11T11:03:21.149Z,1016.801
2024-04-11T11:04:22.065Z,1016.866
2024-04-11T11:05:22.041Z,1016.854
2024-04-11T11:06:21.033Z,1016.831
2024-04-11T11:07:21.962Z,1016.805
2024-04-11T11:08:21.019Z,1016.864
2024-04-11T11:09:21.977Z,1016.852
2024-04-11T11:10:22.060Z,1016.913
2024-04-11T11:11:21.014Z,1016.941
2024-04-11T11:12:22.034Z,1016.946
2024-04-11T11:13:21.020Z,1016.967
2024-04-11T11:14:22.008Z,1016.987
2024-04-11T11:15:22.028Z,1016.961
2024-04-11T11:16:22.017Z,1016.924
2024-04-11T11:17:21.034Z,1016.963
2024-04-11T11:18:21.097Z,1016.973
2024-04-11T11:19:22.004Z,1016.966
2024-04-11T11:20:22.029Z,1016.943
2024-04-11T11:21:22.007Z,1016.961
2024-04-11T11:22:21.050Z,1016.944
2024-04-11T11:23:21.054Z,1016.913
2024-04-11T11:24:22.074Z,1016.936
2024-04-11T11:25:22.123Z,1016.929
2024-04-11T11:26:22.004Z,1016.969
2024-04-11T11:27:21.034Z,1016.949
2024-04-11T11:28:38.374Z,1016.947
2024-04-11T11:29:21.066Z,1016.936
2024-04-11T11:30:22.641Z,1016.933
2024-04-11T11:31:22.055Z,1016.901
2024-04-11T11:32:21.102Z,1016.919
2024-04-11T11:33:22.173Z,1016.931
2024-04-11T11:34:21.091Z,1016.924
2024-04-11T11:35:22.030Z,1016.921
2024-04-11T11:36:22.055Z,1016.934
2024-04-11T11:37:21.095Z,1016.926
2024-04-11T11:38:22.056Z,1016.904
2024-04-11T11:39:21.086Z,1016.934
2024-04-11T11:40:22.087Z,1016.963
2024-04-11T11:41:22.043Z,1016.979
2024-04-11T11:42:23.729Z,1016.97
2024-04-11T11:43:22.078Z,1016.98
2024-04-11T11:44:21.102Z,1016.976
2024-04-11T11:45:22.056Z,1017.019
2024-04-11T11:46:21.098Z,1017.069
2024-04-11T11:47:21.135Z,1016.997